Time;durP1;ratioP1;P1;durP2;ratioP2;P2;SDS_P1;SDS_P2;PMS_P1;PMS_P2;Temp;Humidity;BMP_temperature;BMP_pressure;BME280_temperature;BME280_humidity;BME280_pressure;Samples;Min_cycle;Max_cycle;Signal;HPM_P1;HPM_P2
2023/12/13 00:01:22;;;;;;;6.68;2.40;;;;;;;7.69;100.00;99593.44;5051545;28;20029;-57
2023/12/13 00:03:48;;;;;;;4.65;2.20;;;;;;;7.66;100.00;99591.03;5050788;28;20032;-57
2023/12/13 00:06:13;;;;;;;5.38;2.30;;;;;;;7.64;100.00;99585.88;5051996;28;20083;-56
2023/12/13 00:08:38;;;;;;;6.82;1.92;;;;;;;7.63;100.00;99591.28;5052004;28;20044;-56
2023/12/13 00:11:03;;;;;;;4.93;2.13;;;;;;;7.62;100.00;99592.28;5051398;28;20039;-55
2023/12/13 00:13:29;;;;;;;6.15;2.05;;;;;;;7.57;100.00;99582.91;5051622;28;20398;-57
2023/12/13 00:15:54;;;;;;;6.50;2.00;;;;;;;7.57;100.00;99588.19;5052281;28;20024;-57
2023/12/13 00:18:19;;;;;;;3.50;2.20;;;;;;;7.56;100.00;99589.19;5051105;28;20414;-56
2023/12/13 00:20:44;;;;;;;3.25;2.00;;;;;;;7.56;100.00;99583.03;5052056;28;20095;-57
2023/12/13 00:23:10;;;;;;;8.32;2.15;;;;;;;7.55;100.00;99579.56;5051746;28;20545;-59
2023/12/13 00:25:35;;;;;;;4.43;2.00;;;;;;;7.55;100.00;99581.38;5051075;28;20032;-56
2023/12/13 00:28:00;;;;;;;6.22;2.10;;;;;;;7.54;100.00;99580.56;5051371;28;20473;-58
2023/12/13 00:30:25;;;;;;;3.55;1.85;;;;;;;7.52;100.00;99593.03;5051773;28;20025;-58
2023/12/13 00:32:51;;;;;;;4.40;2.40;;;;;;;7.52;100.00;99590.41;5050902;28;20036;-59
2023/12/13 00:35:16;;;;;;;5.43;2.10;;;;;;;7.52;100.00;99586.94;5051106;28;20053;-58
2023/12/13 00:37:41;;;;;;;6.10;2.00;;;;;;;7.52;100.00;99579.00;5050840;28;20067;-57
2023/12/13 00:40:08;;;;;;;4.18;2.03;;;;;;;7.50;100.00;99588.88;5051633;28;20029;-58
2023/12/13 00:42:33;;;;;;;3.42;2.28;;;;;;;7.49;100.00;99574.81;5049613;28;20021;-56
2023/12/13 00:44:58;;;;;;;5.65;1.95;;;;;;;7.49;100.00;99576.63;5051083;28;20051;-58
2023/12/13 00:47:23;;;;;;;9.25;2.20;;;;;;;7.48;100.00;99581.06;5050171;28;20045;-57
2023/12/13 00:49:49;;;;;;;7.50;2.58;;;;;;;7.49;100.00;99579.25;5050858;28;20104;-58
2023/12/13 00:52:14;;;;;;;6.88;2.28;;;;;;;7.49;100.00;99572.16;5047558;28;20029;-56
2023/12/13 00:54:40;;;;;;;6.22;1.98;;;;;;;7.49;100.00;99573.97;5049492;28;20036;-57
2023/12/13 00:57:07;;;;;;;4.85;2.20;;;;;;;7.47;100.00;99571.47;5049327;28;20523;-58
2023/12/13 00:59:32;;;;;;;6.72;2.33;;;;;;;7.48;100.00;99570.50;5049836;28;20033;-57
2023/12/13 01:01:58;;;;;;;5.95;2.28;;;;;;;7.48;100.00;99564.38;5050181;28;20021;-57
2023/12/13 01:04:23;;;;;;;5.65;2.45;;;;;;;7.49;100.00;99573.97;5050836;28;20082;-57
2023/12/13 01:06:48;;;;;;;7.20;1.88;;;;;;;7.49;100.00;99571.34;5049224;28;20399;-55
2023/12/13 01:09:13;;;;;;;8.63;2.30;;;;;;;7.47;100.00;99563.53;5048720;28;20021;-56
2023/12/13 01:11:39;;;;;;;5.63;2.40;;;;;;;7.47;100.00;99560.88;5050511;28;20496;-56
2023/12/13 01:14:04;;;;;;;5.78;2.13;;;;;;;7.47;100.00;99567.97;5049779;28;20021;-57
2023/12/13 01:16:29;;;;;;;6.40;2.30;;;;;;;7.45;100.00;99565.47;5050668;28;20025;-57
2023/12/13 01:18:55;;;;;;;7.05;2.33;;;;;;;7.45;100.00;99562.81;5051225;28;20017;-56
2023/12/13 01:21:20;;;;;;;4.40;2.10;;;;;;;7.46;100.00;99566.31;5050219;28;20029;-56
2023/12/13 01:23:45;;;;;;;6.50;2.70;;;;;;;7.45;100.00;99569.94;5048609;28;20481;-55
2023/12/13 01:26:10;;;;;;;4.63;2.65;;;;;;;7.46;100.00;99571.59;5050620;28;20075;-57
2023/12/13 01:28:36;;;;;;;9.88;2.70;;;;;;;7.45;100.00;99572.56;5050283;28;20108;-56
2023/12/13 01:31:06;;;;;;;6.20;2.70;;;;;;;7.43;100.00;99562.13;5050329;28;20486;-58
2023/12/13 01:33:31;;;;;;;10.68;2.80;;;;;;;7.42;100.00;99560.44;5049930;28;20040;-57
2023/12/13 01:35:57;;;;;;;7.65;2.15;;;;;;;7.43;100.00;99558.63;5044739;28;20083;-58
2023/12/13 01:38:22;;;;;;;6.30;2.83;;;;;;;7.43;100.00;99563.91;5050648;28;20099;-57
2023/12/13 01:40:51;;;;;;;6.78;2.47;;;;;;;7.43;100.00;99562.13;5050302;28;20029;-57
2023/12/13 01:43:25;;;;;;;10.82;2.80;;;;;;;7.43;100.00;99564.78;5049951;28;20062;-57
2023/12/13 01:45:53;;;;;;;5.65;2.50;;;;;;;7.42;100.00;99560.44;5046784;28;20040;-57
2023/12/13 01:48:22;;;;;;;6.85;2.72;;;;;;;7.44;100.00;99562.97;5048547;28;20065;-56
2023/12/13 01:50:48;;;;;;;6.68;2.58;;;;;;;7.43;100.00;99569.19;5050451;28;20029;-57
2023/12/13 01:53:15;;;;;;;8.85;2.67;;;;;;;7.41;100.00;99574.59;5050340;28;20033;-56
2023/12/13 01:55:41;;;;;;;7.65;2.75;;;;;;;7.43;100.00;99575.34;5050331;28;20029;-58
2023/12/13 01:58:08;;;;;;;7.85;2.70;;;;;;;7.43;100.00;99574.47;5051293;28;20108;-57
2023/12/13 02:00:34;;;;;;;6.72;2.97;;;;;;;7.43;100.00;99574.47;5053524;28;20025;-57
2023/12/13 02:03:00;;;;;;;10.05;3.00;;;;;;;7.42;100.00;99576.28;5050582;28;20056;-56
2023/12/13 02:05:27;;;;;;;8.68;2.75;;;;;;;7.44;100.00;99570.88;5050696;28;20463;-57
2023/12/13 02:07:52;;;;;;;7.70;2.90;;;;;;;7.45;100.00;99572.56;5050339;28;20034;-58
2023/12/13 02:10:18;;;;;;;12.75;3.30;;;;;;;7.45;100.00;99576.03;5050533;28;20025;-58
2023/12/13 02:12:44;;;;;;;9.75;2.88;;;;;;;7.46;100.00;99572.44;5048125;28;20139;-58
2023/12/13 02:15:10;;;;;;;9.88;3.15;;;;;;;7.46;100.00;99568.94;5049601;28;20017;-57
2023/12/13 02:17:35;;;;;;;9.80;3.17;;;;;;;7.46;100.00;99569.81;5050627;28;20386;-57
2023/12/13 02:20:01;;;;;;;10.40;3.17;;;;;;;7.47;100.00;99568.81;5049428;28;20043;-58
2023/12/13 02:22:26;;;;;;;8.80;2.97;;;;;;;7.47;100.00;99567.97;5053963;28;20033;-57
2023/12/13 02:24:54;;;;;;;8.77;2.90;;;;;;;7.47;100.00;99566.16;5053592;28;20071;-56
2023/12/13 02:27:21;;;;;;;8.18;3.15;;;;;;;7.49;100.00;99563.41;5052150;28;20056;-57
2023/12/13 02:29:48;;;;;;;12.13;3.13;;;;;;;7.47;100.00;99560.06;5053091;28;20044;-56
2023/12/13 02:32:14;;;;;;;9.25;2.95;;;;;;;7.48;100.00;99556.47;5054120;28;20398;-57
2023/12/13 02:34:41;;;;;;;11.18;2.90;;;;;;;7.50;100.00;99554.53;5053500;28;20017;-56
2023/12/13 02:37:06;;;;;;;11.30;3.15;;;;;;;7.49;100.00;99551.03;5053439;28;20119;-56
2023/12/13 02:39:32;;;;;;;11.23;3.00;;;;;;;7.50;100.00;99552.72;5053586;28;20092;-57
2023/12/13 02:41:57;;;;;;;10.75;2.97;;;;;;;7.49;100.00;99555.47;5053603;28;20063;-57
2023/12/13 02:44:23;;;;;;;13.02;3.60;;;;;;;7.48;100.00;99548.53;5049653;28;20085;-57
2023/12/13 02:46:48;;;;;;;11.95;3.70;;;;;;;7.46;100.00;99548.66;5050319;28;20469;-57
2023/12/13 02:49:13;;;;;;;11.65;3.05;;;;;;;7.46;100.00;99551.31;5049581;28;20383;-57
2023/12/13 02:51:39;;;;;;;13.02;3.33;;;;;;;7.45;100.00;99549.63;5053621;28;20021;-58
2023/12/13 02:54:04;;;;;;;10.75;2.83;;;;;;;7.44;100.00;99547.94;5052234;28;20021;-55
2023/12/13 02:56:29;;;;;;;11.68;3.53;;;;;;;7.44;100.00;99550.56;5053386;28;20363;-56
2023/12/13 02:58:55;;;;;;;9.52;3.03;;;;;;;7.45;100.00;99549.63;5053122;28;20041;-56
2023/12/13 03:01:20;;;;;;;10.52;2.63;;;;;;;7.45;100.00;99546.16;5052904;28;20041;-56
2023/12/13 03:03:46;;;;;;;9.85;3.10;;;;;;;7.45;100.00;99551.44;5053225;28;20470;-56
2023/12/13 03:06:11;;;;;;;13.73;3.47;;;;;;;7.46;100.00;99542.53;5053243;28;20039;-54
2023/12/13 03:08:36;;;;;;;9.52;3.50;;;;;;;7.48;100.00;99552.00;5049003;28;20028;-57
2023/12/13 03:11:02;;;;;;;10.55;3.08;;;;;;;7.50;100.00;99549.25;5053438;28;20029;-57
2023/12/13 03:13:27;;;;;;;12.77;3.60;;;;;;;7.51;100.00;99551.75;5050166;28;20082;-55
2023/12/13 03:15:52;;;;;;;9.57;2.78;;;;;;;7.52;100.00;99548.13;5052683;28;20029;-55
2023/12/13 03:18:18;;;;;;;10.65;2.78;;;;;;;7.54;100.00;99548.84;5054229;28;20382;-52
2023/12/13 03:20:43;;;;;;;14.80;3.03;;;;;;;7.55;100.00;99539.13;5050989;28;20028;-56
2023/12/13 03:23:10;;;;;;;13.43;3.00;;;;;;;7.56;100.00;99541.63;5051719;28;20470;-54
2023/12/13 03:25:35;;;;;;;12.05;3.05;;;;;;;7.59;100.00;99541.38;5053185;28;20029;-54
2023/12/13 03:28:00;;;;;;;12.18;3.00;;;;;;;7.61;100.00;99535.97;5050561;28;20108;-52
2023/12/13 03:30:25;;;;;;;10.65;2.50;;;;;;;7.64;100.00;99540.13;5052127;28;20033;-52
2023/12/13 03:32:51;;;;;;;19.65;3.53;;;;;;;7.67;100.00;99542.53;5052541;28;20048;-53
2023/12/13 03:35:16;;;;;;;10.77;2.75;;;;;;;7.69;100.00;99537.94;5052033;28;20040;-54
2023/12/13 03:37:41;;;;;;;13.25;2.90;;;;;;;7.72;100.00;99537.66;5052470;28;20013;-53
2023/12/13 03:40:07;;;;;;;11.15;3.00;;;;;;;7.72;100.00;99535.84;5050745;28;20072;-55
2023/12/13 03:42:32;;;;;;;10.23;3.10;;;;;;;7.74;100.00;99535.72;5051274;28;20033;-52
2023/12/13 03:44:58;;;;;;;11.43;2.97;;;;;;;7.75;100.00;99521.56;5051443;28;20041;-55
2023/12/13 03:47:23;;;;;;;10.85;3.10;;;;;;;7.76;100.00;99529.34;5051006;28;20044;-55
2023/12/13 03:49:48;;;;;;;10.70;3.15;;;;;;;7.78;100.00;99527.41;5052574;28;20078;-55
2023/12/13 03:52:14;;;;;;;11.38;2.95;;;;;;;7.80;100.00;99522.00;5052039;28;20028;-54
2023/12/13 03:54:39;;;;;;;9.18;2.60;;;;;;;7.83;100.00;99527.03;5051969;28;20060;-53
2023/12/13 03:57:05;;;;;;;15.23;3.05;;;;;;;7.84;100.00;99514.63;5051509;28;20465;-56
2023/12/13 03:59:30;;;;;;;14.00;3.20;;;;;;;7.84;100.00;99519.91;5048404;28;20039;-53
2023/12/13 04:01:56;;;;;;;10.93;2.88;;;;;;;7.85;100.00;99519.78;5051095;28;20048;-56
2023/12/13 04:04:21;;;;;;;10.02;2.72;;;;;;;7.85;100.00;99517.16;5050634;28;20032;-54
2023/12/13 04:06:47;;;;;;;9.75;3.00;;;;;;;7.87;100.00;99523.13;5051560;28;20033;-55
2023/12/13 04:09:12;;;;;;;10.10;2.90;;;;;;;7.87;100.00;99519.66;5049084;28;20035;-56
2023/12/13 04:11:37;;;;;;;12.82;3.47;;;;;;;7.89;100.00;99520.34;5047908;28;20033;-53
2023/12/13 04:14:02;;;;;;;13.30;3.42;;;;;;;7.90;100.00;99509.66;5051382;28;20025;-56
2023/12/13 04:16:28;;;;;;;13.20;3.20;;;;;;;7.91;100.00;99511.34;5051571;28;20116;-55
2023/12/13 04:18:53;;;;;;;10.85;2.60;;;;;;;7.92;100.00;99520.91;5051594;28;20098;-54
2023/12/13 04:21:18;;;;;;;11.65;2.92;;;;;;;7.92;100.00;99512.16;5051271;28;20072;-56
2023/12/13 04:23:44;;;;;;;12.75;3.47;;;;;;;7.93;100.00;99516.50;5048838;28;20029;-56
2023/12/13 04:26:09;;;;;;;13.85;3.13;;;;;;;7.92;100.00;99514.81;5051305;28;20116;-55
2023/12/13 04:28:35;;;;;;;13.25;3.15;;;;;;;7.94;100.00;99524.28;5050944;28;20040;-56
2023/12/13 04:31:00;;;;;;;16.30;3.10;;;;;;;7.94;100.00;99513.72;5051856;28;20025;-56
2023/12/13 04:33:25;;;;;;;10.07;2.90;;;;;;;7.94;100.00;99521.66;5051410;28;20031;-55
2023/12/13 04:35:54;;;;;;;15.80;3.53;;;;;;;7.95;100.00;99515.38;5050740;28;20087;-55
2023/12/13 04:38:19;;;;;;;10.52;3.22;;;;;;;7.95;100.00;99512.72;5051503;28;20029;-52
2023/12/13 04:40:44;;;;;;;15.23;3.35;;;;;;;7.95;100.00;99511.91;5051252;28;20029;-56
2023/12/13 04:43:10;;;;;;;13.13;3.22;;;;;;;7.96;100.00;99516.22;5050198;28;20474;-55
2023/12/13 04:45:35;;;;;;;13.63;3.13;;;;;;;7.96;100.00;99514.41;5050928;28;20065;-55
2023/12/13 04:48:00;;;;;;;15.52;3.30;;;;;;;7.97;100.00;99518.72;5051265;28;20045;-52
2023/12/13 04:50:25;;;;;;;11.20;3.70;;;;;;;7.98;100.00;99514.28;5051310;28;20124;-54
2023/12/13 04:52:51;;;;;;;14.90;3.50;;;;;;;7.99;100.00;99510.66;5051572;28;20021;-57
2023/12/13 04:55:16;;;;;;;12.18;2.90;;;;;;;8.02;100.00;99513.03;5050762;28;20025;-55
2023/12/13 04:57:41;;;;;;;13.90;3.58;;;;;;;8.01;100.00;99514.03;5050501;28;20029;-53
2023/12/13 05:00:07;;;;;;;13.10;3.20;;;;;;;8.02;100.00;99510.38;5051114;28;20029;-54
2023/12/13 05:02:33;;;;;;;17.08;4.13;;;;;;;8.02;100.00;99510.38;5050773;28;20515;-55
2023/12/13 05:04:58;;;;;;;17.15;3.47;;;;;;;8.03;100.00;99506.78;5050251;28;20119;-55
2023/12/13 05:07:26;;;;;;;16.17;3.65;;;;;;;8.05;100.00;99511.94;5050468;28;20119;-52
2023/12/13 05:09:51;;;;;;;15.35;3.47;;;;;;;8.04;100.00;99505.78;5051045;28;20028;-52
2023/12/13 05:12:16;;;;;;;12.60;3.60;;;;;;;8.06;100.00;99505.66;5050880;28;20021;-55
2023/12/13 05:14:42;;;;;;;13.18;3.00;;;;;;;8.07;100.00;99502.06;5050809;28;20430;-56
2023/12/13 05:17:07;;;;;;;18.65;3.90;;;;;;;8.08;100.00;99503.75;5050737;28;20025;-56
2023/12/13 05:19:33;;;;;;;15.73;3.30;;;;;;;8.08;100.00;99501.09;5050719;28;20029;-56
2023/12/13 05:21:58;;;;;;;11.55;3.22;;;;;;;8.09;100.00;99500.09;5047969;28;20034;-56
2023/12/13 05:24:23;;;;;;;15.98;3.30;;;;;;;8.10;100.00;99497.31;5050023;28;20163;-57
2023/12/13 05:26:48;;;;;;;18.13;4.38;;;;;;;8.09;100.00;99500.97;5049278;28;20036;-57
2023/12/13 05:29:14;;;;;;;15.00;3.72;;;;;;;8.10;100.00;99499.16;5048019;28;20032;-57
2023/12/13 05:31:39;;;;;;;16.85;3.95;;;;;;;8.11;100.00;99499.00;5051113;28;20029;-57
2023/12/13 05:34:04;;;;;;;17.58;3.80;;;;;;;8.11;100.00;99499.00;5050198;28;20529;-56
2023/12/13 05:36:30;;;;;;;16.98;3.47;;;;;;;8.11;100.00;99495.50;5047504;28;20033;-56
2023/12/13 05:38:56;;;;;;;17.00;3.83;;;;;;;8.08;100.00;99501.09;5049831;28;20025;-57
2023/12/13 05:41:21;;;;;;;14.13;3.75;;;;;;;8.09;100.00;99502.75;5048012;28;20402;-55
2023/12/13 05:43:46;;;;;;;16.38;4.13;;;;;;;8.11;100.00;99506.09;5049917;28;20025;-56
2023/12/13 05:46:12;;;;;;;16.45;3.47;;;;;;;8.10;100.00;99501.78;5050556;28;20029;-57
2023/12/13 05:48:37;;;;;;;15.45;3.58;;;;;;;8.11;100.00;99504.31;5050657;28;20051;-57
2023/12/13 05:51:02;;;;;;;14.93;3.40;;;;;;;8.11;100.00;99501.66;5049929;28;20478;-56
2023/12/13 05:53:28;;;;;;;15.32;3.80;;;;;;;8.14;100.00;99498.75;5051738;28;20029;-58
2023/12/13 05:55:53;;;;;;;16.92;3.65;;;;;;;8.14;100.00;99503.19;5053780;28;20025;-59
2023/12/13 05:58:18;;;;;;;13.23;3.40;;;;;;;8.11;100.00;99498.16;5053849;28;20041;-58
2023/12/13 06:00:44;;;;;;;16.70;3.92;;;;;;;8.09;100.00;99505.41;5054223;28;20476;-59
2023/12/13 06:03:09;;;;;;;13.90;3.08;;;;;;;8.09;100.00;99505.41;5054471;28;20056;-58
2023/12/13 06:05:35;;;;;;;12.23;2.92;;;;;;;8.08;100.00;99503.75;5053344;28;20024;-57
2023/12/13 06:08:00;;;;;;;11.50;3.42;;;;;;;8.05;100.00;99509.28;5054677;28;20052;-58
2023/12/13 06:10:26;;;;;;;15.35;3.50;;;;;;;8.04;100.00;99500.50;5052659;28;20466;-57
2023/12/13 06:12:52;;;;;;;11.50;3.22;;;;;;;8.02;100.00;99504.28;5051801;28;20063;-57
2023/12/13 06:15:18;;;;;;;16.48;3.47;;;;;;;8.00;100.00;99503.56;5054293;28;20024;-57
2023/12/13 06:17:43;;;;;;;12.75;3.40;;;;;;;7.97;100.00;99505.50;5051663;28;20256;-58
2023/12/13 06:20:10;;;;;;;12.07;3.55;;;;;;;7.95;100.00;99507.44;5053006;28;20533;-57
2023/12/13 06:22:36;;;;;;;17.35;4.13;;;;;;;7.94;100.00;99508.44;5051035;28;20071;-58
2023/12/13 06:25:01;;;;;;;11.38;3.33;;;;;;;7.92;100.00;99509.50;5052967;28;20028;-58
2023/12/13 06:27:26;;;;;;;13.98;4.15;;;;;;;7.92;100.00;99518.28;5051945;28;20148;-57
2023/12/13 06:29:52;;;;;;;10.55;3.63;;;;;;;7.90;100.00;99514.09;5053349;28;20044;-58
2023/12/13 06:32:17;;;;;;;14.02;3.60;;;;;;;7.89;100.00;99515.06;5054058;28;20464;-57
2023/12/13 06:34:42;;;;;;;17.40;4.45;;;;;;;7.88;100.00;99519.53;5053638;28;20473;-57
2023/12/13 06:37:08;;;;;;;16.05;4.22;;;;;;;7.90;100.00;99514.09;5054386;28;20438;-59
2023/12/13 06:39:33;;;;;;;12.98;3.65;;;;;;;7.88;100.00;99521.34;5053394;28;20026;-58
2023/12/13 06:41:58;;;;;;;18.30;3.92;;;;;;;7.85;100.00;99517.16;5053944;28;20119;-59
2023/12/13 06:44:24;;;;;;;11.98;3.83;;;;;;;7.84;100.00;99515.47;5053116;28;20064;-59
2023/12/13 06:46:50;;;;;;;17.15;3.88;;;;;;;7.83;100.00;99516.44;5053443;28;20370;-59
2023/12/13 06:49:16;;;;;;;16.27;4.03;;;;;;;7.83;100.00;99520.88;5047771;28;20095;-60
2023/12/13 06:51:41;;;;;;;14.55;3.70;;;;;;;7.82;100.00;99527.97;5050162;28;20685;-60
2023/12/13 06:54:08;;;;;;;12.57;3.70;;;;;;;7.80;100.00;99516.72;5049999;28;20021;-59
2023/12/13 06:56:34;;;;;;;18.63;4.03;;;;;;;7.78;100.00;99522.13;5051249;28;20028;-60
2023/12/13 06:59:00;;;;;;;11.27;4.15;;;;;;;7.80;100.00;99515.88;5050348;28;20527;-58
2023/12/13 07:01:26;;;;;;;14.80;4.07;;;;;;;7.77;100.00;99517.78;5053318;28;20029;-59
2023/12/13 07:03:51;;;;;;;12.43;4.47;;;;;;;7.78;100.00;99523.94;5041269;28;20033;-60
2023/12/13 07:06:18;;;;;;;17.33;4.50;;;;;;;7.77;100.00;99520.44;5048538;28;20036;-59
2023/12/13 07:08:45;;;;;;;13.02;3.75;;;;;;;7.76;100.00;99525.84;5047384;28;20033;-58
2023/12/13 07:11:11;;;;;;;13.27;4.00;;;;;;;7.75;100.00;99525.03;5048072;28;20033;-57
2023/12/13 07:13:36;;;;;;;13.27;4.43;;;;;;;7.75;100.00;99524.19;5048730;28;20397;-58
2023/12/13 07:16:01;;;;;;;15.32;4.20;;;;;;;7.76;100.00;99528.50;5050522;28;20056;-59
2023/12/13 07:18:26;;;;;;;11.05;3.83;;;;;;;7.77;100.00;99527.53;5045297;28;20024;-59
2023/12/13 07:20:52;;;;;;;14.10;4.28;;;;;;;7.76;100.00;99525.84;5047924;28;20078;-59
2023/12/13 07:23:18;;;;;;;13.85;4.20;;;;;;;7.76;100.00;99524.06;5048771;28;20028;-59
2023/12/13 07:25:43;;;;;;;16.15;4.80;;;;;;;7.77;100.00;99527.53;5046438;28;20025;-59
2023/12/13 07:28:08;;;;;;;13.55;4.88;;;;;;;7.76;100.00;99533.78;5051601;28;20394;-56
2023/12/13 07:30:34;;;;;;;14.13;4.60;;;;;;;7.76;100.00;99526.72;5051731;28;20027;-58
2023/12/13 07:32:59;;;;;;;15.10;4.47;;;;;;;7.77;100.00;99535.47;5049786;28;20033;-60
2023/12/13 07:35:26;;;;;;;13.45;4.30;;;;;;;7.77;100.00;99533.66;5046248;28;20381;-59
2023/12/13 07:37:52;;;;;;;16.92;5.45;;;;;;;7.79;100.00;99541.44;5051671;28;20037;-60
2023/12/13 07:40:17;;;;;;;9.02;4.30;;;;;;;7.76;100.00;99533.78;5044740;28;20021;-60
2023/12/13 07:42:43;;;;;;;11.57;5.15;;;;;;;7.73;100.00;99529.63;5051046;28;20082;-60
2023/12/13 07:45:10;;;;;;;14.77;5.07;;;;;;;7.71;100.00;99536.00;5052289;28;20048;-59
2023/12/13 07:47:35;;;;;;;14.35;4.70;;;;;;;7.69;100.00;99533.47;5048728;28;20045;-59
2023/12/13 07:50:01;;;;;;;15.55;5.53;;;;;;;7.66;100.00;99536.41;5049779;28;20390;-59
2023/12/13 07:52:26;;;;;;;13.65;5.00;;;;;;;7.66;100.00;99535.53;5049842;28;20043;-59
2023/12/13 07:54:52;;;;;;;14.85;5.43;;;;;;;7.64;100.00;99532.19;5049893;28;20036;-59
2023/12/13 07:57:17;;;;;;;13.60;5.38;;;;;;;7.64;100.00;99537.50;5049247;28;20063;-56
2023/12/13 07:59:42;;;;;;;15.65;5.22;;;;;;;7.62;100.00;99542.06;5049299;28;20437;-57
2023/12/13 08:02:08;;;;;;;18.67;5.93;;;;;;;7.62;100.00;99542.06;5047459;28;20025;-59
2023/12/13 08:04:33;;;;;;;18.48;5.90;;;;;;;7.60;100.00;99543.03;5051237;28;20460;-59
2023/12/13 08:06:58;;;;;;;15.23;5.80;;;;;;;7.59;100.00;99544.03;5048645;28;20025;-58
2023/12/13 08:09:24;;;;;;;14.73;5.60;;;;;;;7.58;100.00;99538.88;5050054;28;20025;-59
2023/12/13 08:11:49;;;;;;;18.88;6.40;;;;;;;7.58;100.00;99541.50;5044201;28;20021;-59
2023/12/13 08:14:15;;;;;;;13.80;5.63;;;;;;;7.57;100.00;99545.94;5051169;28;20025;-59
2023/12/13 08:16:41;;;;;;;15.55;5.85;;;;;;;7.57;100.00;99545.94;5044643;28;20083;-59
2023/12/13 08:19:06;;;;;;;15.30;5.95;;;;;;;7.57;100.00;99543.28;5051120;28;20025;-59
2023/12/13 08:21:32;;;;;;;13.95;6.22;;;;;;;7.56;100.00;99546.91;5049049;28;20373;-59
2023/12/13 08:23:57;;;;;;;14.60;5.47;;;;;;;7.57;100.00;99548.56;5043837;28;20041;-59
2023/12/13 08:26:25;;;;;;;17.65;5.97;;;;;;;7.58;100.00;99552.06;5048642;28;20028;-57
2023/12/13 08:28:51;;;;;;;14.13;5.57;;;;;;;7.59;100.00;99551.09;5051035;28;20119;-59
2023/12/13 08:31:16;;;;;;;13.07;5.43;;;;;;;7.59;100.00;99551.94;5044165;28;20079;-59
2023/12/13 08:33:41;;;;;;;19.27;5.97;;;;;;;7.62;100.00;99557.94;5043836;28;20040;-59
2023/12/13 08:36:11;;;;;;;16.20;5.70;;;;;;;7.62;100.00;99565.84;5043601;28;20033;-59
2023/12/13 08:38:39;;;;;;;18.20;6.07;;;;;;;7.63;100.00;99567.50;5047938;28;20029;-59
2023/12/13 08:41:06;;;;;;;17.00;6.05;;;;;;;7.62;100.00;99566.69;5046492;28;20770;-59
2023/12/13 08:43:32;;;;;;;17.95;6.03;;;;;;;7.64;100.00;99572.66;5046433;28;20099;-59
2023/12/13 08:45:57;;;;;;;18.23;5.15;;;;;;;7.65;100.00;99570.88;5047190;28;20092;-58
2023/12/13 08:48:23;;;;;;;15.77;5.57;;;;;;;7.67;100.00;99566.31;5050354;28;20064;-58
2023/12/13 08:50:49;;;;;;;21.92;5.60;;;;;;;7.69;100.00;99570.47;5048681;28;20061;-59
2023/12/13 08:53:14;;;;;;;18.70;6.10;;;;;;;7.70;100.00;99564.22;5046803;28;20551;-59
2023/12/13 08:55:39;;;;;;;19.42;5.72;;;;;;;7.72;100.00;99572.84;5042333;28;20028;-59
2023/12/13 08:58:04;;;;;;;15.15;5.35;;;;;;;7.75;100.00;99572.59;5046510;28;20438;-59
2023/12/13 09:00:30;;;;;;;20.05;6.10;;;;;;;7.78;100.00;99580.28;5044697;28;20035;-58
2023/12/13 09:02:55;;;;;;;18.70;5.93;;;;;;;7.80;100.00;99576.66;5046806;28;20056;-59
2023/12/13 09:05:21;;;;;;;14.70;5.85;;;;;;;7.82;100.00;99574.72;5046880;28;20378;-59
2023/12/13 09:07:46;;;;;;;13.55;5.50;;;;;;;7.83;100.00;99573.75;5047079;28;20029;-58
2023/12/13 09:10:12;;;;;;;16.42;5.70;;;;;;;7.85;100.00;99577.94;5047106;28;20561;-58
2023/12/13 09:12:37;;;;;;;17.27;5.57;;;;;;;7.87;100.00;99580.47;5046967;28;20033;-58
2023/12/13 09:15:05;;;;;;;20.75;6.35;;;;;;;7.90;100.00;99585.50;5045410;28;20210;-57
2023/12/13 09:17:30;;;;;;;16.52;5.95;;;;;;;7.92;100.00;99583.53;5049096;28;20028;-56
2023/12/13 09:19:56;;;;;;;18.20;5.85;;;;;;;7.92;100.00;99584.38;5045648;28;20028;-58
2023/12/13 09:22:21;;;;;;;16.08;5.50;;;;;;;7.95;100.00;99593.84;5047141;28;20056;-59
2023/12/13 09:24:46;;;;;;;21.35;5.78;;;;;;;7.96;100.00;99591.09;5046827;28;20033;-60
2023/12/13 09:27:11;;;;;;;19.83;5.82;;;;;;;7.97;100.00;99582.16;5044765;28;20037;-58
2023/12/13 09:29:37;;;;;;;18.10;5.93;;;;;;;8.00;100.00;99596.13;5047357;28;20025;-58
2023/12/13 09:32:02;;;;;;;21.00;6.40;;;;;;;8.01;100.00;99588.06;5048768;28;20036;-58
2023/12/13 09:34:28;;;;;;;17.25;6.30;;;;;;;8.02;100.00;99589.72;5051729;28;20068;-58
2023/12/13 09:36:54;;;;;;;17.25;5.93;;;;;;;8.05;100.00;99599.19;5052572;28;20032;-59
2023/12/13 09:39:19;;;;;;;14.18;6.03;;;;;;;8.06;100.00;99596.44;5052752;28;20021;-58
2023/12/13 09:42:04;;;;;;;19.58;6.82;;;;;;;8.10;100.00;99599.63;5051795;28;20244;-58
2023/12/13 09:44:31;;;;;;;17.83;6.13;;;;;;;8.12;100.00;99597.69;5047592;28;20421;-59
2023/12/13 09:47:00;;;;;;;14.57;6.82;;;;;;;8.11;100.00;99599.50;5051309;28;20021;-59
2023/12/13 09:49:28;;;;;;;15.27;6.35;;;;;;;8.12;100.00;99608.28;5052403;28;20048;-58
2023/12/13 09:51:55;;;;;;;12.52;6.38;;;;;;;8.12;100.00;99609.09;5047888;28;20090;-57
2023/12/13 09:54:20;;;;;;;15.27;6.22;;;;;;;8.12;100.00;99609.09;5051704;28;20033;-58
2023/12/13 09:56:46;;;;;;;19.63;6.95;;;;;;;8.13;100.00;99608.13;5052073;28;20024;-58
2023/12/13 09:59:11;;;;;;;17.30;6.10;;;;;;;8.13;100.00;99608.13;5051708;28;20032;-59
2023/12/13 10:01:36;;;;;;;19.48;6.25;;;;;;;8.13;100.00;99618.72;5050552;28;20029;-58
2023/12/13 10:04:03;;;;;;;14.35;6.55;;;;;;;8.17;100.00;99616.66;5049927;28;20451;-59
2023/12/13 10:06:29;;;;;;;14.30;6.72;;;;;;;8.18;100.00;99628.91;5051722;28;20029;-59
2023/12/13 10:08:55;;;;;;;15.30;6.93;;;;;;;8.18;100.00;99631.56;5048550;28;20513;-59
2023/12/13 10:11:21;;;;;;;11.48;6.32;;;;;;;8.18;100.00;99628.06;5050438;28;20017;-59
2023/12/13 10:13:46;;;;;;;11.35;5.97;;;;;;;8.15;100.00;99627.34;5048566;28;20036;-59
2023/12/13 10:16:12;;;;;;;13.15;6.30;;;;;;;8.15;100.00;99627.34;5053442;28;20122;-59
2023/12/13 10:18:40;;;;;;;13.73;6.25;;;;;;;8.16;100.00;99628.22;5052969;28;20033;-59
2023/12/13 10:21:06;;;;;;;15.77;6.65;;;;;;;8.18;100.00;99635.97;5053347;28;20032;-60
2023/12/13 10:23:33;;;;;;;14.15;7.20;;;;;;;8.15;100.00;99640.56;5051918;28;20025;-59
2023/12/13 10:25:58;;;;;;;13.63;5.78;;;;;;;8.15;100.00;99637.09;5052773;28;20032;-60
2023/12/13 10:28:24;;;;;;;16.10;6.85;;;;;;;8.15;100.00;99640.56;5053402;28;20024;-59
2023/12/13 10:30:50;;;;;;;14.35;6.70;;;;;;;8.15;100.00;99642.38;5052931;28;20405;-58
2023/12/13 10:33:15;;;;;;;14.15;6.32;;;;;;;8.14;100.00;99635.41;5053217;28;20033;-59
2023/12/13 10:35:41;;;;;;;15.00;6.60;;;;;;;8.14;100.00;99628.34;5052864;28;20411;-58
2023/12/13 10:38:06;;;;;;;12.60;6.72;;;;;;;8.14;100.00;99636.28;5052829;28;20100;-59
2023/12/13 10:40:32;;;;;;;19.58;6.55;;;;;;;8.14;100.00;99635.41;5050606;28;20585;-58
2023/12/13 10:42:58;;;;;;;17.13;7.00;;;;;;;8.15;100.00;99639.75;5051177;28;20036;-59
2023/12/13 10:45:24;;;;;;;16.27;6.88;;;;;;;8.17;100.00;99645.75;5052792;28;20060;-60
2023/12/13 10:47:59;;;;;;;15.07;6.53;;;;;;;8.18;100.00;99642.13;5050824;28;20049;-60
2023/12/13 10:50:24;;;;;;;18.55;7.07;;;;;;;8.19;100.00;99641.16;5052598;28;20033;-60
2023/12/13 10:52:53;;;;;;;14.82;6.68;;;;;;;8.18;100.00;99636.84;5052240;28;20027;-59
2023/12/13 10:55:19;;;;;;;18.25;6.43;;;;;;;8.22;100.00;99640.06;5047797;28;20039;-59
2023/12/13 10:57:45;;;;;;;18.85;6.80;;;;;;;8.21;100.00;99643.66;5050562;28;20032;-59
2023/12/13 11:00:13;;;;;;;21.42;6.85;;;;;;;8.22;100.00;99638.25;5050755;28;20470;-60
2023/12/13 11:02:48;;;;;;;14.77;6.03;;;;;;;8.21;100.00;99626.00;5051831;28;20037;-59
2023/12/13 11:05:13;;;;;;;13.70;6.18;;;;;;;8.26;100.00;99633.53;5048963;28;20021;-59
2023/12/13 11:07:44;;;;;;;12.52;5.68;;;;;;;8.24;100.00;99638.94;5050200;28;20087;-60
2023/12/13 11:10:09;;;;;;;15.60;5.95;;;;;;;8.26;100.00;99641.44;5051128;28;20021;-59
2023/12/13 11:12:45;;;;;;;21.08;6.57;;;;;;;8.24;100.00;99644.22;5051591;28;20367;-59
2023/12/13 11:15:14;;;;;;;16.15;5.47;;;;;;;8.27;100.00;99649.25;5051260;28;20047;-59
2023/12/13 11:17:40;;;;;;;15.98;5.43;;;;;;;8.30;100.00;99650.81;5051889;28;20033;-59
2023/12/13 11:20:09;;;;;;;16.42;5.72;;;;;;;8.29;100.00;99650.00;5051437;28;20058;-59